Detall de PIREP

Printer-friendly versionPDF version

[2013/08/04 10:49:00]
Flight IATA:CT1004
Pilot Number:012
Company ICAO:CAT
Aircraft Type:DC3/A
PAX:19
Aircraft Registration:PAX
Departing Airport: LFMT
Destination Airport: LFBO
Alternate Airport:LEBL
Online: VATSIM
Route:BRUSC G39 AFRIC
Flight Level:F090
No Slew and time accel
No pause
Crash detect
Detect pilot in Cockpit between each 30 and 45 minutes
10:49 Zero fuel Weight: 19693 Lbs, Fuel Weight: 2010 Lbs
10:49 VATSIM:LFMT 041030Z 17006KT CAVOK 29/19 Q1019 NOSIG
10:49 VATSIM:LFBO 041030Z AUTO VRB04KT 9999 NSC 28/15 Q1021
10:49 VOICE CATALONIAN / SUMMER CHARTER
10:56 Parking Brakes off
11:01 Take-off
11:01 Take off Weight: 21674 Lbs
11:01 Wind: 143º @ 005 Knots Heading: 126º
11:01 POS N43º 34´ 52´´ E003º 57´ 59´´
11:01 Gear Up: 094 Knots
11:12 TOC
11:12 Fuel Weight: 1841 Lb
11:16 Wind:227º@014 Knots Heading: 280º Ground Speed: 155 Knots Altitude 9199 ft
11:31 Wind:225º@014 Knots Heading: 223º Ground Speed: 148 Knots Altitude 9399 ft
11:38 TOD
11:38 Fuel Weight: 1567 Lb
11:46 Wind:247º@008 Knots Heading: 300º Ground Speed: 158 Knots Altitude 5013 ft
11:54 Flaps:1 at 105 Knots
11:55 Flaps:2 at 95 Knots
11:56 Flaps:3 at 89 Knots
11:56 Gear Down: 82 Knots
11:59 TouchDown:Rate -135 ft/min Speed: 70 Knots
12:00 Flaps:0 at 36 Knots
12:00 VATSIM:LFBO 041130Z AUTO 34005KT 260V040 9999 NSC 29/15 Q1020
12:00 Land
12:00 Wind:332º@004 Knots
12:00 Heading: 325º
12:00 Flight Duration: 00:59
12:00 Landing Weight: 21098 Lbs
12:00 POS N43º 37´ 19´´ E001º 22´ 24´´
12:03 Parking brakes on
12:03 Block to Block Duration: 01:07
12:03 Final Fuel: 1397 Lbls
12:03 Spent Fuel: 612 Lbls
12:03 Flight Length: 135 NM
12:03 TOD Land Length: 48 NM

Exportar CSV

Powered by Drupal - Modified by Danger4k